createdAt,value
2023-03-20T00:02:02.074Z,10.80
2023-03-20T00:04:30.409Z,10.90
2023-03-20T00:06:58.189Z,10.60
2023-03-20T00:09:27.027Z,10.90
2023-03-20T00:11:55.941Z,10.70
2023-03-20T00:14:26.194Z,10.70
2023-03-20T00:16:54.171Z,10.20
2023-03-20T00:19:23.883Z,10.60
2023-03-20T00:21:53.029Z,10.70
2023-03-20T00:24:21.284Z,10.70
2023-03-20T00:26:51.063Z,10.80
2023-03-20T00:29:23.302Z,10.60
2023-03-20T00:31:53.010Z,10.70
2023-03-20T00:34:23.585Z,10.70
2023-03-20T00:36:51.568Z,10.90
2023-03-20T00:39:19.396Z,10.70
2023-03-20T00:41:51.496Z,10.70
2023-03-20T00:44:23.088Z,10.80
2023-03-20T00:46:54.792Z,10.90
2023-03-20T00:49:26.357Z,10.90
2023-03-20T00:51:54.294Z,10.80
2023-03-20T00:54:22.068Z,10.90
2023-03-20T00:56:55.887Z,10.80
2023-03-20T00:59:27.389Z,10.90
2023-03-20T01:01:56.612Z,10.80
2023-03-20T01:04:24.397Z,10.70
2023-03-20T01:06:52.552Z,10.80
2023-03-20T01:09:20.312Z,10.70
2023-03-20T01:11:48.154Z,11.00
2023-03-20T01:14:17.816Z,11.20
2023-03-20T01:16:45.776Z,10.60
2023-03-20T01:19:16.785Z,10.90
2023-03-20T01:21:44.838Z,11.00
2023-03-20T01:24:12.617Z,10.80
2023-03-20T01:26:42.007Z,10.90
2023-03-20T01:29:18.630Z,10.90
2023-03-20T01:31:47.055Z,10.90
2023-03-20T01:34:17.280Z,10.80
2023-03-20T01:36:49.340Z,10.90
2023-03-20T01:39:19.014Z,11.00
2023-03-20T01:41:47.945Z,10.80
2023-03-20T01:44:21.163Z,10.90
2023-03-20T01:46:50.604Z,11.00
2023-03-20T01:49:55.217Z,11.00
2023-03-20T01:52:24.474Z,11.00
2023-03-20T01:54:52.756Z,10.90
2023-03-20T01:57:23.360Z,11.00
2023-03-20T01:59:54.933Z,10.90
2023-03-20T02:02:26.022Z,11.00
2023-03-20T02:04:58.936Z,10.80
2023-03-20T02:07:28.217Z,10.80
2023-03-20T02:09:56.323Z,10.70
2023-03-20T02:12:24.272Z,10.30
2023-03-20T02:14:53.904Z,10.80
2023-03-20T02:17:22.077Z,10.90
2023-03-20T02:19:59.496Z,10.90
2023-03-20T02:23:01.522Z,10.80
2023-03-20T02:26:00.416Z,10.70
2023-03-20T02:28:59.349Z,10.50
2023-03-20T02:32:00.281Z,10.80
2023-03-20T02:34:52.092Z,10.80
2023-03-20T02:37:48.489Z,10.90
2023-03-20T02:40:25.379Z,10.60
2023-03-20T02:43:01.957Z,10.80
2023-03-20T02:45:35.805Z,10.80
2023-03-20T02:48:15.237Z,10.90
2023-03-20T02:50:49.660Z,10.60
2023-03-20T02:53:29.596Z,10.80
2023-03-20T02:56:04.424Z,10.70
2023-03-20T02:58:39.601Z,10.80
2023-03-20T03:01:14.240Z,10.70
2023-03-20T03:03:47.324Z,10.80
2023-03-20T03:06:22.994Z,10.70
2023-03-20T03:08:58.104Z,10.80
2023-03-20T03:11:26.410Z,10.50
2023-03-20T03:13:56.983Z,10.90
2023-03-20T03:16:27.817Z,10.60
2023-03-20T03:19:03.814Z,10.80
2023-03-20T03:21:32.877Z,10.80
2023-03-20T03:24:02.676Z,10.60
2023-03-20T03:26:35.498Z,10.80
2023-03-20T03:29:08.228Z,10.60
2023-03-20T03:31:38.811Z,10.50
2023-03-20T03:34:06.914Z,10.50
2023-03-20T03:36:45.529Z,10.80
2023-03-20T03:39:22.332Z,10.70
2023-03-20T03:41:53.109Z,10.60
2023-03-20T03:44:27.441Z,10.60
2023-03-20T03:46:57.928Z,10.70
2023-03-20T03:49:28.935Z,10.50
2023-03-20T03:52:01.567Z,10.50
2023-03-20T03:54:35.546Z,10.40
2023-03-20T03:57:04.465Z,10.60
2023-03-20T03:59:38.969Z,10.80
2023-03-20T04:02:08.964Z,10.80
2023-03-20T04:04:40.006Z,10.50
2023-03-20T04:07:07.822Z,10.70
2023-03-20T04:09:37.356Z,10.60
2023-03-20T04:12:06.674Z,10.70
2023-03-20T04:14:37.442Z,10.50
2023-03-20T04:17:05.271Z,10.40
2023-03-20T04:19:32.963Z,10.50
2023-03-20T04:22:01.043Z,10.70
2023-03-20T04:24:28.780Z,10.50
2023-03-20T04:26:57.840Z,10.60
2023-03-20T04:29:26.210Z,10.80
2023-03-20T04:31:53.982Z,10.50
2023-03-20T04:34:21.990Z,10.70
2023-03-20T04:36:50.162Z,10.60
2023-03-20T04:39:17.852Z,10.70
2023-03-20T04:41:46.093Z,10.50
2023-03-20T04:44:15.550Z,10.60
2023-03-20T04:46:43.222Z,10.80
2023-03-20T04:49:11.218Z,10.70
2023-03-20T04:51:38.902Z,10.70
2023-03-20T04:54:06.633Z,10.60
2023-03-20T04:56:34.398Z,10.60
2023-03-20T04:59:02.204Z,10.70
2023-03-20T05:01:31.256Z,10.50
2023-03-20T05:04:01.022Z,10.80
2023-03-20T05:06:29.018Z,10.80
2023-03-20T05:08:56.774Z,10.40
2023-03-20T05:11:24.535Z,10.60
2023-03-20T05:13:52.474Z,10.10
2023-03-20T05:16:20.461Z,10.60
2023-03-20T05:18:49.619Z,10.60
2023-03-20T05:21:17.375Z,10.70
2023-03-20T05:23:45.150Z,10.60
2023-03-20T05:26:12.843Z,10.60
2023-03-20T05:28:40.704Z,10.70
2023-03-20T05:31:08.589Z,10.80
2023-03-20T05:33:38.224Z,10.60
2023-03-20T05:36:08.598Z,10.80
2023-03-20T05:38:36.321Z,10.60
2023-03-20T05:41:04.071Z,10.70
2023-03-20T05:43:31.867Z,10.70
2023-03-20T05:45:59.703Z,10.50
2023-03-20T05:48:27.477Z,10.70
2023-03-20T05:50:55.191Z,10.50
2023-03-20T05:53:24.276Z,10.50
2023-03-20T05:55:52.032Z,10.70
2023-03-20T05:58:19.836Z,10.70
2023-03-20T06:00:47.913Z,10.90
2023-03-20T06:03:15.828Z,10.50
2023-03-20T06:05:43.567Z,10.40
2023-03-20T06:08:11.766Z,10.70
2023-03-20T06:10:41.072Z,10.70
2023-03-20T06:13:08.877Z,10.90
2023-03-20T06:15:37.036Z,10.90
2023-03-20T06:18:05.679Z,11.00
2023-03-20T06:20:33.439Z,10.70
2023-03-20T06:23:01.311Z,11.00
2023-03-20T06:25:29.092Z,10.80
2023-03-20T06:27:58.625Z,11.00
2023-03-20T06:30:26.930Z,10.60
2023-03-20T06:32:55.035Z,10.40
2023-03-20T06:35:22.874Z,10.80
2023-03-20T06:37:50.590Z,10.90
2023-03-20T06:40:18.459Z,10.80
2023-03-20T06:42:46.321Z,10.90
2023-03-20T06:45:15.726Z,10.80
2023-03-20T06:47:43.974Z,10.90
2023-03-20T06:50:12.771Z,10.90
2023-03-20T06:52:40.756Z,10.80
2023-03-20T06:55:09.286Z,10.80
2023-03-20T06:57:37.068Z,11.00
2023-03-20T07:00:05.303Z,10.90
2023-03-20T07:02:34.418Z,10.90
2023-03-20T07:05:02.307Z,11.00
2023-03-20T07:07:30.312Z,11.10
2023-03-20T07:09:58.444Z,10.80
2023-03-20T07:12:28.644Z,10.80
2023-03-20T07:14:56.831Z,10.60
2023-03-20T07:17:24.699Z,10.80
2023-03-20T07:19:53.852Z,10.90
2023-03-20T07:22:23.964Z,11.00
2023-03-20T07:24:51.804Z,11.00
2023-03-20T07:27:19.772Z,11.00
2023-03-20T07:29:47.547Z,10.90
2023-03-20T07:32:15.326Z,10.80
2023-03-20T07:34:43.023Z,10.70
2023-03-20T07:37:12.131Z,10.80
2023-03-20T07:39:39.964Z,10.70
2023-03-20T07:42:07.749Z,11.10
2023-03-20T07:44:35.501Z,11.00
2023-03-20T07:47:03.210Z,11.10
2023-03-20T07:49:30.978Z,11.00
2023-03-20T07:51:58.760Z,11.10
2023-03-20T07:54:28.036Z,11.10
2023-03-20T07:56:55.874Z,11.00
2023-03-20T07:59:23.647Z,11.10
2023-03-20T08:01:52.233Z,11.00
2023-03-20T08:04:22.432Z,10.60
2023-03-20T08:06:51.157Z,11.20
2023-03-20T08:09:19.480Z,11.10
2023-03-20T08:11:48.648Z,11.20
2023-03-20T08:14:16.405Z,11.30
2023-03-20T08:16:44.108Z,11.40
2023-03-20T08:19:11.933Z,11.10
2023-03-20T08:21:40.129Z,11.30
2023-03-20T08:24:08.751Z,11.40
2023-03-20T08:26:37.131Z,11.20
2023-03-20T08:29:06.264Z,10.80
2023-03-20T08:31:34.000Z,11.50
2023-03-20T08:34:02.026Z,11.30
2023-03-20T08:36:29.776Z,11.40
2023-03-20T08:38:57.487Z,11.40
2023-03-20T08:41:25.224Z,11.20
2023-03-20T08:43:52.986Z,11.30
2023-03-20T08:46:22.137Z,11.00
2023-03-20T08:48:49.873Z,11.60
2023-03-20T08:51:17.625Z,11.50
2023-03-20T08:53:45.454Z,11.60
2023-03-20T08:56:13.159Z,11.60
2023-03-20T08:58:40.914Z,11.60
2023-03-20T09:01:11.870Z,11.80
2023-03-20T09:03:43.623Z,11.60
2023-03-20T09:06:13.836Z,11.60
2023-03-20T09:08:43.478Z,11.70
2023-03-20T09:11:13.212Z,11.60
2023-03-20T09:13:42.723Z,11.70
2023-03-20T09:16:14.932Z,11.70
2023-03-20T09:18:46.431Z,11.80
2023-03-20T09:21:16.264Z,11.70
2023-03-20T09:23:46.255Z,11.60
2023-03-20T09:26:15.984Z,11.80
2023-03-20T09:28:45.620Z,11.60
2023-03-20T09:31:15.420Z,11.80
2023-03-20T09:33:46.833Z,11.80
2023-03-20T09:36:16.382Z,12.00
2023-03-20T09:38:46.091Z,11.80
2023-03-20T09:41:22.220Z,11.80
2023-03-20T09:44:06.861Z,11.90
2023-03-20T09:46:50.044Z,12.10
2023-03-20T09:49:33.273Z,12.00
2023-03-20T09:52:04.601Z,12.00
2023-03-20T09:54:53.130Z,11.90
2023-03-20T09:57:26.290Z,12.30
2023-03-20T09:59:58.193Z,12.60
2023-03-20T10:02:37.068Z,12.80
2023-03-20T10:05:18.431Z,12.80
2023-03-20T10:07:46.349Z,13.20
2023-03-20T10:10:15.341Z,13.10
2023-03-20T10:13:00.130Z,13.40
2023-03-20T10:15:38.732Z,13.40
2023-03-20T10:18:16.527Z,13.40
2023-03-20T10:20:52.929Z,13.90
2023-03-20T10:23:27.997Z,14.00
2023-03-20T10:26:00.796Z,13.50
2023-03-20T10:28:34.076Z,14.40
2023-03-20T10:31:14.893Z,14.00
2023-03-20T10:33:55.682Z,14.50
2023-03-20T10:36:40.128Z,14.50
2023-03-20T10:39:13.060Z,14.40
2023-03-20T10:41:46.748Z,14.70
2023-03-20T10:44:20.038Z,14.90
2023-03-20T10:46:51.353Z,14.90
2023-03-20T10:49:22.880Z,15.00
2023-03-20T10:51:54.801Z,14.70
2023-03-20T10:54:28.030Z,14.80
2023-03-20T10:56:58.130Z,14.90
2023-03-20T10:59:29.295Z,15.20
2023-03-20T11:01:57.104Z,15.10
2023-03-20T11:04:25.732Z,15.30
2023-03-20T11:07:02.605Z,15.40
2023-03-20T11:09:31.301Z,15.40
2023-03-20T11:12:00.949Z,15.50
2023-03-20T11:14:34.764Z,14.80
2023-03-20T11:17:05.490Z,14.70
2023-03-20T11:19:35.999Z,14.80
2023-03-20T11:22:11.302Z,15.10
2023-03-20T11:24:43.189Z,15.70
2023-03-20T11:27:13.414Z,16.10
2023-03-20T11:29:45.702Z,16.80
2023-03-20T11:32:25.603Z,17.40
2023-03-20T11:34:57.235Z,17.60
2023-03-20T11:37:29.449Z,17.50
2023-03-20T11:40:01.242Z,17.20
2023-03-20T11:42:31.463Z,16.60
2023-03-20T11:45:18.196Z,16.10
2023-03-20T11:47:51.287Z,16.00
2023-03-20T11:50:33.007Z,15.60
2023-03-20T11:53:04.000Z,15.60
2023-03-20T11:55:34.145Z,15.60
2023-03-20T11:58:05.150Z,15.50
2023-03-20T12:00:38.794Z,15.70
2023-03-20T12:03:51.968Z,15.60
2023-03-20T12:06:21.960Z,15.20
2023-03-20T12:08:56.236Z,15.70
2023-03-20T12:11:44.310Z,15.10
2023-03-20T12:14:19.461Z,15.60
2023-03-20T12:16:49.518Z,15.30
2023-03-20T12:19:21.668Z,15.30
2023-03-20T12:21:56.944Z,15.70
2023-03-20T12:24:36.735Z,15.90
2023-03-20T12:27:18.100Z,16.20
2023-03-20T12:29:51.069Z,17.00
2023-03-20T12:32:24.661Z,17.00
2023-03-20T12:34:57.841Z,16.90
2023-03-20T12:37:30.603Z,16.40
2023-03-20T12:40:04.327Z,16.40
2023-03-20T12:42:45.689Z,16.30
2023-03-20T12:45:16.004Z,16.30
2023-03-20T12:48:05.831Z,16.20
2023-03-20T12:50:37.232Z,16.50
2023-03-20T12:53:27.894Z,16.60
2023-03-20T12:56:07.280Z,16.50
2023-03-20T12:58:44.894Z,16.10
2023-03-20T13:01:20.229Z,16.60
2023-03-20T13:04:00.989Z,16.30
2023-03-20T13:06:38.578Z,16.50
2023-03-20T13:09:37.669Z,16.80
2023-03-20T13:12:16.889Z,16.60
2023-03-20T13:14:51.837Z,16.50
2023-03-20T13:17:26.326Z,16.40
2023-03-20T13:20:12.770Z,16.40
2023-03-20T13:22:55.205Z,16.50
2023-03-20T13:25:43.452Z,16.40
2023-03-20T13:28:20.186Z,15.80
2023-03-20T13:30:55.718Z,16.20
2023-03-20T13:33:39.222Z,16.20
2023-03-20T13:36:18.320Z,16.30
2023-03-20T13:38:53.761Z,16.20
2023-03-20T13:41:25.460Z,16.30
2023-03-20T13:44:01.056Z,16.10
2023-03-20T13:46:33.990Z,16.30
2023-03-20T13:49:06.896Z,16.10
2023-03-20T13:51:40.426Z,16.10
2023-03-20T13:54:20.862Z,16.00
2023-03-20T13:56:57.842Z,15.90
2023-03-20T13:59:51.109Z,15.80
2023-03-20T14:02:35.602Z,15.90
2023-03-20T14:05:08.106Z,16.20
2023-03-20T14:07:37.885Z,16.00
2023-03-20T14:10:39.921Z,15.80
2023-03-20T14:13:14.401Z,16.10
2023-03-20T14:15:55.879Z,15.90
2023-03-20T14:18:26.372Z,16.00
2023-03-20T14:21:01.630Z,15.90
2023-03-20T14:23:37.729Z,15.60
2023-03-20T14:26:10.179Z,15.90
2023-03-20T14:28:55.985Z,15.90
2023-03-20T14:31:30.535Z,16.20
2023-03-20T14:34:09.786Z,15.90
2023-03-20T14:36:58.087Z,16.30
2023-03-20T14:39:43.094Z,16.40
2023-03-20T14:42:33.945Z,16.20
2023-03-20T14:45:32.614Z,16.20
2023-03-20T14:48:08.990Z,16.30
2023-03-20T14:50:41.668Z,16.10
2023-03-20T14:53:17.102Z,16.10
2023-03-20T14:56:06.606Z,15.90
2023-03-20T14:58:50.770Z,16.10
2023-03-20T15:01:26.356Z,16.20
2023-03-20T15:03:58.964Z,16.00
2023-03-20T15:06:28.743Z,16.20
2023-03-20T15:08:59.933Z,16.20
2023-03-20T15:11:28.071Z,16.10
2023-03-20T15:13:58.476Z,15.70
2023-03-20T15:16:29.710Z,15.70
2023-03-20T15:18:59.451Z,15.80
2023-03-20T15:21:34.053Z,15.60
2023-03-20T15:24:02.591Z,15.80
2023-03-20T15:26:32.997Z,15.20
2023-03-20T15:29:03.652Z,15.50
2023-03-20T15:31:33.532Z,15.80
2023-03-20T15:34:09.136Z,15.60
2023-03-20T15:36:39.948Z,15.80
2023-03-20T15:39:15.007Z,15.60
2023-03-20T15:41:47.059Z,15.60
2023-03-20T15:44:20.398Z,15.80
2023-03-20T15:46:57.524Z,15.50
2023-03-20T15:49:28.500Z,15.30
2023-03-20T15:52:00.192Z,14.60
2023-03-20T15:54:28.370Z,15.10
2023-03-20T15:57:00.460Z,14.70
2023-03-20T15:59:31.224Z,15.10
2023-03-20T16:02:00.452Z,14.90
2023-03-20T16:04:29.982Z,14.80
2023-03-20T16:07:00.068Z,14.50
2023-03-20T16:09:28.836Z,14.80
2023-03-20T16:11:58.746Z,14.70
2023-03-20T16:14:28.693Z,14.70
2023-03-20T16:16:59.107Z,14.90
2023-03-20T16:19:28.915Z,14.60
2023-03-20T16:22:00.638Z,14.80
2023-03-20T16:24:31.546Z,14.60
2023-03-20T16:26:59.473Z,14.70
2023-03-20T16:29:28.865Z,14.60
2023-03-20T16:32:00.239Z,14.60
2023-03-20T16:34:33.334Z,14.40
2023-03-20T16:37:07.204Z,14.20
2023-03-20T16:39:35.376Z,14.30
2023-03-20T16:42:12.549Z,14.40
2023-03-20T16:44:43.191Z,14.30
2023-03-20T16:47:20.969Z,14.20
2023-03-20T16:50:13.066Z,14.20
2023-03-20T16:52:47.200Z,13.90
2023-03-20T16:55:18.748Z,14.00
2023-03-20T16:57:50.588Z,13.80
2023-03-20T17:00:30.131Z,13.90
2023-03-20T17:03:02.388Z,13.90
2023-03-20T17:05:49.340Z,13.90
2023-03-20T17:08:26.544Z,13.50
2023-03-20T17:10:58.388Z,13.70
2023-03-20T17:13:26.281Z,13.80
2023-03-20T17:15:54.947Z,13.80
2023-03-20T17:18:23.148Z,13.70
2023-03-20T17:20:50.877Z,13.60
2023-03-20T17:23:22.327Z,13.50
2023-03-20T17:25:51.611Z,13.60
2023-03-20T17:28:21.654Z,13.60
2023-03-20T17:30:51.255Z,13.50
2023-03-20T17:33:20.834Z,13.50
2023-03-20T17:35:50.004Z,13.50
2023-03-20T17:38:21.373Z,13.60
2023-03-20T17:40:49.679Z,13.40
2023-03-20T17:43:18.766Z,13.60
2023-03-20T17:45:48.259Z,13.20
2023-03-20T17:48:20.521Z,13.50
2023-03-20T17:50:51.077Z,13.30
2023-03-20T17:53:23.861Z,13.30
2023-03-20T17:55:52.730Z,13.50
2023-03-20T17:58:22.501Z,13.20
2023-03-20T18:00:51.244Z,13.10
2023-03-20T18:03:19.480Z,13.50
2023-03-20T18:05:50.619Z,13.10
2023-03-20T18:08:22.182Z,13.30
2023-03-20T18:10:51.665Z,13.20
2023-03-20T18:13:20.994Z,13.10
2023-03-20T18:15:49.501Z,12.60
2023-03-20T18:18:17.529Z,13.40
2023-03-20T18:20:46.972Z,13.40
2023-03-20T18:23:15.454Z,13.10
2023-03-20T18:25:44.697Z,13.10
2023-03-20T18:28:20.578Z,13.10
2023-03-20T18:30:48.703Z,13.10
2023-03-20T18:33:17.450Z,13.10
2023-03-20T18:35:45.543Z,13.00
2023-03-20T18:38:14.352Z,13.30
2023-03-20T18:40:43.605Z,12.80
2023-03-20T18:43:12.654Z,12.80
2023-03-20T18:45:40.563Z,13.20
2023-03-20T18:48:11.544Z,12.80
2023-03-20T18:50:42.971Z,13.00
2023-03-20T18:53:11.777Z,12.90
2023-03-20T18:55:39.578Z,13.10
2023-03-20T18:58:08.986Z,13.00
2023-03-20T19:00:40.690Z,13.00
2023-03-20T19:03:09.654Z,12.70
2023-03-20T19:05:38.383Z,12.70
2023-03-20T19:08:06.818Z,13.00
2023-03-20T19:10:37.448Z,12.90
2023-03-20T19:13:07.376Z,12.70
2023-03-20T19:15:38.686Z,12.80
2023-03-20T19:18:08.172Z,12.90
2023-03-20T19:20:38.096Z,12.80
2023-03-20T19:23:07.661Z,12.60
2023-03-20T19:25:36.671Z,12.80
2023-03-20T19:28:05.494Z,12.70
2023-03-20T19:30:35.868Z,12.50
2023-03-20T19:33:06.448Z,12.80
2023-03-20T19:38:23.833Z,12.50
2023-03-20T19:40:53.335Z,12.80
2023-03-20T19:43:21.503Z,12.80
2023-03-20T19:45:51.749Z,13.00
2023-03-20T19:48:22.976Z,12.90
2023-03-20T19:50:51.765Z,12.60
2023-03-20T19:53:21.500Z,12.50
2023-03-20T19:55:49.465Z,12.80
2023-03-20T19:58:17.301Z,12.80
2023-03-20T20:01:00.824Z,12.50
2023-03-20T20:03:30.578Z,12.50
2023-03-20T20:05:59.220Z,12.40
2023-03-20T20:08:43.021Z,12.60
2023-03-20T20:11:14.407Z,12.20
2023-03-20T20:14:04.289Z,12.40
2023-03-20T20:16:31.137Z,12.40
2023-03-20T20:19:00.364Z,12.40
2023-03-20T20:22:13.278Z,12.40
2023-03-20T20:24:17.118Z,12.20
2023-03-20T20:26:54.377Z,12.30
2023-03-20T20:29:25.412Z,12.30
2023-03-20T20:31:53.318Z,12.30
2023-03-20T20:35:29.985Z,12.20
2023-03-20T20:37:51.727Z,12.30
2023-03-20T20:39:58.513Z,12.30
2023-03-20T20:42:26.409Z,12.10
2023-03-20T20:44:54.239Z,12.30
2023-03-20T20:47:21.987Z,12.20
2023-03-20T20:49:51.094Z,12.20
2023-03-20T20:52:18.900Z,12.10
2023-03-20T20:54:48.238Z,12.10
2023-03-20T20:57:16.307Z,12.40
2023-03-20T20:59:44.045Z,12.00
2023-03-20T21:02:12.521Z,12.10
2023-03-20T21:04:41.152Z,12.10
2023-03-20T21:07:11.884Z,12.00
2023-03-20T21:09:40.383Z,12.10
2023-03-20T21:12:10.294Z,12.00
2023-03-20T21:14:38.559Z,12.00
2023-03-20T21:17:07.196Z,12.30
2023-03-20T21:19:37.193Z,11.90
2023-03-20T21:22:05.689Z,12.00
2023-03-20T21:24:35.357Z,12.00
2023-03-20T21:27:04.563Z,12.10
2023-03-20T21:29:32.373Z,11.90
2023-03-20T21:32:00.343Z,12.00
2023-03-20T21:34:28.870Z,12.20
2023-03-20T21:36:57.827Z,12.20
2023-03-20T21:39:28.554Z,11.90
2023-03-20T21:41:58.215Z,11.90
2023-03-20T21:45:08.151Z,12.10
2023-03-20T21:48:17.272Z,12.30
2023-03-20T21:50:48.466Z,11.90
2023-03-20T22:01:58.932Z,11.70
2023-03-20T22:05:02.017Z,11.90
2023-03-20T22:07:38.398Z,12.10
2023-03-20T22:10:16.498Z,11.70
2023-03-20T22:13:14.043Z,11.90
2023-03-20T22:15:54.470Z,11.90
2023-03-20T22:21:37.013Z,12.00
2023-03-20T22:24:31.068Z,12.00
2023-03-20T22:46:40.007Z,12.10
2023-03-20T22:48:59.629Z,11.80
2023-03-20T22:51:34.343Z,11.90
2023-03-20T22:54:03.645Z,11.80
2023-03-20T22:56:31.409Z,11.90
2023-03-20T22:58:59.119Z,11.90
2023-03-20T23:01:27.720Z,11.90
2023-03-20T23:03:55.474Z,12.00
2023-03-20T23:06:27.205Z,12.00
2023-03-20T23:08:58.409Z,11.90
2023-03-20T23:11:28.485Z,12.00
2023-03-20T23:13:57.200Z,11.70
2023-03-20T23:16:25.104Z,11.70
2023-03-20T23:18:53.027Z,11.70
2023-03-20T23:21:20.887Z,11.80
2023-03-20T23:23:49.975Z,11.50
2023-03-20T23:26:20.877Z,11.50
2023-03-20T23:28:51.286Z,11.40
2023-03-20T23:31:21.160Z,11.50
2023-03-20T23:33:50.938Z,11.40
2023-03-20T23:36:32.975Z,11.20
2023-03-20T23:39:05.115Z,11.20
2023-03-20T23:42:01.700Z,11.40
2023-03-20T23:44:20.854Z,11.30
2023-03-20T23:46:48.708Z,11.10
2023-03-20T23:49:17.356Z,11.50
2023-03-20T23:51:45.431Z,11.50
2023-03-20T23:54:14.728Z,11.30
2023-03-20T23:56:42.479Z,11.30
2023-03-20T23:59:21.097Z,11.40
